sensor_id;sensor_type;location;lat;lon;timestamp;P1;durP1;ratioP1;P2;durP2;ratioP2
65545;SDS011;52177;55.968;37.498;2023-04-03T00:00:05;11.95;;;10.82;;
65545;SDS011;52177;55.968;37.498;2023-04-03T00:00:36;10.80;;;9.68;;
65545;SDS011;52177;55.968;37.498;2023-04-03T00:01:07;11.18;;;10.07;;
65545;SDS011;52177;55.968;37.498;2023-04-03T00:01:37;13.23;;;10.40;;
65545;SDS011;52177;55.968;37.498;2023-04-03T00:02:08;12.27;;;11.00;;
65545;SDS011;52177;55.968;37.498;2023-04-03T00:02:38;11.68;;;10.57;;
65545;SDS011;52177;55.968;37.498;2023-04-03T00:03:10;14.85;;;11.13;;
65545;SDS011;52177;55.968;37.498;2023-04-03T00:03:41;13.80;;;9.93;;
65545;SDS011;52177;55.968;37.498;2023-04-03T00:04:12;11.40;;;10.30;;
65545;SDS011;52177;55.968;37.498;2023-04-03T00:04:42;12.60;;;10.43;;
65545;SDS011;52177;55.968;37.498;2023-04-03T00:05:12;11.57;;;10.40;;
65545;SDS011;52177;55.968;37.498;2023-04-03T00:05:42;13.57;;;10.57;;
65545;SDS011;52177;55.968;37.498;2023-04-03T00:06:13;17.05;;;10.13;;
65545;SDS011;52177;55.968;37.498;2023-04-03T00:06:43;12.20;;;9.88;;
65545;SDS011;52177;55.968;37.498;2023-04-03T00:07:14;11.10;;;9.95;;
65545;SDS011;52177;55.968;37.498;2023-04-03T00:07:44;11.18;;;9.55;;
65545;SDS011;52177;55.968;37.498;2023-04-03T00:08:15;14.05;;;11.10;;
65545;SDS011;52177;55.968;37.498;2023-04-03T00:08:45;17.67;;;11.70;;
65545;SDS011;52177;55.968;37.498;2023-04-03T00:09:16;12.32;;;10.82;;
65545;SDS011;52177;55.968;37.498;2023-04-03T00:09:46;16.55;;;12.15;;
65545;SDS011;52177;55.968;37.498;2023-04-03T00:10:16;15.15;;;11.93;;
65545;SDS011;52177;55.968;37.498;2023-04-03T00:10:47;13.77;;;11.88;;
65545;SDS011;52177;55.968;37.498;2023-04-03T00:11:18;14.95;;;12.00;;
65545;SDS011;52177;55.968;37.498;2023-04-03T00:11:50;13.27;;;11.38;;
65545;SDS011;52177;55.968;37.498;2023-04-03T00:12:21;14.15;;;11.52;;
65545;SDS011;52177;55.968;37.498;2023-04-03T00:12:51;12.95;;;10.93;;
65545;SDS011;52177;55.968;37.498;2023-04-03T00:13:22;12.27;;;11.05;;
65545;SDS011;52177;55.968;37.498;2023-04-03T00:13:53;13.43;;;10.73;;
65545;SDS011;52177;55.968;37.498;2023-04-03T00:14:23;12.07;;;10.38;;
65545;SDS011;52177;55.968;37.498;2023-04-03T00:14:53;14.90;;;11.60;;
65545;SDS011;52177;55.968;37.498;2023-04-03T00:15:24;12.68;;;10.63;;
65545;SDS011;52177;55.968;37.498;2023-04-03T00:15:54;11.70;;;10.02;;
65545;SDS011;52177;55.968;37.498;2023-04-03T00:16:25;11.63;;;10.05;;
65545;SDS011;52177;55.968;37.498;2023-04-03T00:16:55;14.65;;;10.15;;
65545;SDS011;52177;55.968;37.498;2023-04-03T00:17:25;11.35;;;10.25;;
65545;SDS011;52177;55.968;37.498;2023-04-03T00:17:56;13.82;;;10.27;;
65545;SDS011;52177;55.968;37.498;2023-04-03T00:18:26;13.23;;;11.00;;
65545;SDS011;52177;55.968;37.498;2023-04-03T00:18:57;11.20;;;9.93;;
65545;SDS011;52177;55.968;37.498;2023-04-03T00:19:27;12.75;;;11.13;;
65545;SDS011;52177;55.968;37.498;2023-04-03T00:19:58;11.35;;;10.18;;
65545;SDS011;52177;55.968;37.498;2023-04-03T00:20:28;14.85;;;10.68;;
65545;SDS011;52177;55.968;37.498;2023-04-03T00:20:58;13.45;;;10.75;;
65545;SDS011;52177;55.968;37.498;2023-04-03T00:21:29;12.48;;;11.27;;
65545;SDS011;52177;55.968;37.498;2023-04-03T00:22:00;11.90;;;10.50;;
65545;SDS011;52177;55.968;37.498;2023-04-03T00:22:30;14.20;;;10.68;;
65545;SDS011;52177;55.968;37.498;2023-04-03T00:23:01;13.75;;;10.82;;
65545;SDS011;52177;55.968;37.498;2023-04-03T00:23:33;11.60;;;10.18;;
65545;SDS011;52177;55.968;37.498;2023-04-03T00:24:04;12.45;;;10.07;;
65545;SDS011;52177;55.968;37.498;2023-04-03T00:24:35;11.93;;;10.23;;
65545;SDS011;52177;55.968;37.498;2023-04-03T00:25:05;10.93;;;9.82;;
65545;SDS011;52177;55.968;37.498;2023-04-03T00:25:36;13.80;;;11.52;;
65545;SDS011;52177;55.968;37.498;2023-04-03T00:26:06;15.75;;;10.60;;
65545;SDS011;52177;55.968;37.498;2023-04-03T00:26:37;13.70;;;11.38;;
65545;SDS011;52177;55.968;37.498;2023-04-03T00:27:07;11.10;;;10.00;;
65545;SDS011;52177;55.968;37.498;2023-04-03T00:27:37;11.57;;;10.30;;
65545;SDS011;52177;55.968;37.498;2023-04-03T00:28:09;12.55;;;10.77;;
65545;SDS011;52177;55.968;37.498;2023-04-03T00:28:39;12.25;;;10.85;;
65545;SDS011;52177;55.968;37.498;2023-04-03T00:29:10;14.65;;;11.57;;
65545;SDS011;52177;55.968;37.498;2023-04-03T00:29:40;14.48;;;10.95;;
65545;SDS011;52177;55.968;37.498;2023-04-03T00:30:12;12.82;;;10.07;;
65545;SDS011;52177;55.968;37.498;2023-04-03T00:30:44;11.20;;;10.10;;
65545;SDS011;52177;55.968;37.498;2023-04-03T00:31:15;15.30;;;10.30;;
65545;SDS011;52177;55.968;37.498;2023-04-03T00:31:46;13.48;;;11.07;;
65545;SDS011;52177;55.968;37.498;2023-04-03T00:32:16;12.95;;;9.70;;
65545;SDS011;52177;55.968;37.498;2023-04-03T00:32:47;13.05;;;10.10;;
65545;SDS011;52177;55.968;37.498;2023-04-03T00:33:18;11.75;;;10.55;;
65545;SDS011;52177;55.968;37.498;2023-04-03T00:33:51;11.32;;;9.90;;
65545;SDS011;52177;55.968;37.498;2023-04-03T00:34:21;12.23;;;10.30;;
65545;SDS011;52177;55.968;37.498;2023-04-03T00:34:52;13.88;;;11.35;;
65545;SDS011;52177;55.968;37.498;2023-04-03T00:35:23;11.75;;;10.60;;
65545;SDS011;52177;55.968;37.498;2023-04-03T00:35:54;12.50;;;10.57;;
65545;SDS011;52177;55.968;37.498;2023-04-03T00:36:24;13.30;;;11.02;;
65545;SDS011;52177;55.968;37.498;2023-04-03T00:36:55;11.85;;;10.65;;
65545;SDS011;52177;55.968;37.498;2023-04-03T00:37:25;13.50;;;10.75;;
65545;SDS011;52177;55.968;37.498;2023-04-03T00:37:56;13.98;;;11.15;;
65545;SDS011;52177;55.968;37.498;2023-04-03T00:38:26;14.45;;;10.90;;
65545;SDS011;52177;55.968;37.498;2023-04-03T00:38:57;11.30;;;10.10;;
65545;SDS011;52177;55.968;37.498;2023-04-03T00:39:27;12.68;;;11.02;;
65545;SDS011;52177;55.968;37.498;2023-04-03T00:39:57;13.63;;;10.95;;
65545;SDS011;52177;55.968;37.498;2023-04-03T00:40:32;11.27;;;10.07;;
65545;SDS011;52177;55.968;37.498;2023-04-03T00:41:05;11.70;;;10.40;;
65545;SDS011;52177;55.968;37.498;2023-04-03T00:41:35;13.13;;;10.18;;
65545;SDS011;52177;55.968;37.498;2023-04-03T00:42:06;11.65;;;9.95;;
65545;SDS011;52177;55.968;37.498;2023-04-03T00:42:37;11.40;;;9.40;;
65545;SDS011;52177;55.968;37.498;2023-04-03T00:43:12;11.85;;;9.85;;
65545;SDS011;52177;55.968;37.498;2023-04-03T00:43:53;11.20;;;9.40;;
65545;SDS011;52177;55.968;37.498;2023-04-03T00:45:37;11.77;;;9.82;;
65545;SDS011;52177;55.968;37.498;2023-04-03T00:46:10;10.38;;;9.15;;
65545;SDS011;52177;55.968;37.498;2023-04-03T00:46:41;11.15;;;9.50;;
65545;SDS011;52177;55.968;37.498;2023-04-03T00:47:12;10.45;;;9.45;;
65545;SDS011;52177;55.968;37.498;2023-04-03T00:47:45;10.25;;;8.77;;
65545;SDS011;52177;55.968;37.498;2023-04-03T00:48:36;11.00;;;9.65;;
65545;SDS011;52177;55.968;37.498;2023-04-03T00:49:15;10.48;;;9.38;;
65545;SDS011;52177;55.968;37.498;2023-04-03T00:49:46;10.73;;;9.63;;
65545;SDS011;52177;55.968;37.498;2023-04-03T00:50:16;11.15;;;9.30;;
65545;SDS011;52177;55.968;37.498;2023-04-03T00:50:47;11.88;;;10.13;;
65545;SDS011;52177;55.968;37.498;2023-04-03T00:51:20;12.80;;;9.98;;
65545;SDS011;52177;55.968;37.498;2023-04-03T00:51:54;10.85;;;9.45;;
65545;SDS011;52177;55.968;37.498;2023-04-03T00:52:28;11.10;;;9.85;;
65545;SDS011;52177;55.968;37.498;2023-04-03T00:53:00;13.38;;;9.80;;
65545;SDS011;52177;55.968;37.498;2023-04-03T00:53:34;12.35;;;10.25;;
65545;SDS011;52177;55.968;37.498;2023-04-03T00:54:08;13.13;;;10.18;;
65545;SDS011;52177;55.968;37.498;2023-04-03T00:54:38;11.93;;;9.63;;
65545;SDS011;52177;55.968;37.498;2023-04-03T00:55:10;10.70;;;9.60;;
65545;SDS011;52177;55.968;37.498;2023-04-03T00:55:41;10.95;;;9.85;;
65545;SDS011;52177;55.968;37.498;2023-04-03T00:56:13;12.40;;;10.32;;
65545;SDS011;52177;55.968;37.498;2023-04-03T00:56:48;11.90;;;10.70;;
65545;SDS011;52177;55.968;37.498;2023-04-03T00:57:21;15.15;;;10.63;;
65545;SDS011;52177;55.968;37.498;2023-04-03T00:57:52;11.27;;;10.18;;
65545;SDS011;52177;55.968;37.498;2023-04-03T00:58:35;12.93;;;10.00;;
65545;SDS011;52177;55.968;37.498;2023-04-03T00:59:10;12.50;;;10.20;;
65545;SDS011;52177;55.968;37.498;2023-04-03T00:59:44;12.25;;;10.20;;
65545;SDS011;52177;55.968;37.498;2023-04-03T01:00:20;12.20;;;10.15;;
65545;SDS011;52177;55.968;37.498;2023-04-03T01:00:53;11.40;;;10.25;;
65545;SDS011;52177;55.968;37.498;2023-04-03T01:01:28;11.02;;;9.85;;
65545;SDS011;52177;55.968;37.498;2023-04-03T01:02:00;11.88;;;9.27;;
65545;SDS011;52177;55.968;37.498;2023-04-03T01:02:31;11.30;;;9.20;;
65545;SDS011;52177;55.968;37.498;2023-04-03T01:03:01;12.68;;;9.43;;
65545;SDS011;52177;55.968;37.498;2023-04-03T01:03:32;11.43;;;10.02;;
65545;SDS011;52177;55.968;37.498;2023-04-03T01:04:03;10.15;;;9.15;;
65545;SDS011;52177;55.968;37.498;2023-04-03T01:04:39;11.52;;;9.73;;
65545;SDS011;52177;55.968;37.498;2023-04-03T01:05:11;10.93;;;9.45;;
65545;SDS011;52177;55.968;37.498;2023-04-03T01:05:42;12.95;;;10.13;;
65545;SDS011;52177;55.968;37.498;2023-04-03T01:06:13;11.48;;;9.73;;
65545;SDS011;52177;55.968;37.498;2023-04-03T01:06:47;11.13;;;9.40;;
65545;SDS011;52177;55.968;37.498;2023-04-03T01:07:18;11.27;;;9.45;;
65545;SDS011;52177;55.968;37.498;2023-04-03T01:07:52;11.60;;;10.40;;
65545;SDS011;52177;55.968;37.498;2023-04-03T01:08:23;11.02;;;9.63;;
65545;SDS011;52177;55.968;37.498;2023-04-03T01:08:53;12.95;;;9.57;;
65545;SDS011;52177;55.968;37.498;2023-04-03T01:09:25;12.88;;;9.70;;
65545;SDS011;52177;55.968;37.498;2023-04-03T01:09:57;10.57;;;9.25;;
65545;SDS011;52177;55.968;37.498;2023-04-03T01:10:29;14.00;;;9.30;;
65545;SDS011;52177;55.968;37.498;2023-04-03T01:11:00;12.35;;;9.60;;
65545;SDS011;52177;55.968;37.498;2023-04-03T01:11:30;10.65;;;9.25;;
65545;SDS011;52177;55.968;37.498;2023-04-03T01:12:51;12.85;;;9.75;;
65545;SDS011;52177;55.968;37.498;2023-04-03T01:13:55;12.05;;;10.05;;
65545;SDS011;52177;55.968;37.498;2023-04-03T01:14:25;13.60;;;10.15;;
65545;SDS011;52177;55.968;37.498;2023-04-03T01:14:57;11.77;;;10.27;;
65545;SDS011;52177;55.968;37.498;2023-04-03T01:15:29;10.52;;;9.50;;
65545;SDS011;52177;55.968;37.498;2023-04-03T01:16:05;13.45;;;9.75;;
65545;SDS011;52177;55.968;37.498;2023-04-03T01:16:35;10.02;;;9.02;;
65545;SDS011;52177;55.968;37.498;2023-04-03T01:18:01;11.68;;;9.68;;
65545;SDS011;52177;55.968;37.498;2023-04-03T01:18:33;11.75;;;9.63;;
65545;SDS011;52177;55.968;37.498;2023-04-03T01:19:06;10.90;;;9.80;;
65545;SDS011;52177;55.968;37.498;2023-04-03T01:19:42;12.38;;;10.32;;
65545;SDS011;52177;55.968;37.498;2023-04-03T01:20:43;10.60;;;9.35;;
65545;SDS011;52177;55.968;37.498;2023-04-03T01:21:54;10.95;;;9.27;;
65545;SDS011;52177;55.968;37.498;2023-04-03T01:22:29;10.73;;;9.27;;
65545;SDS011;52177;55.968;37.498;2023-04-03T01:23:52;12.45;;;9.93;;
65545;SDS011;52177;55.968;37.498;2023-04-03T01:24:35;11.10;;;9.70;;
65545;SDS011;52177;55.968;37.498;2023-04-03T01:25:08;12.90;;;10.48;;
65545;SDS011;52177;55.968;37.498;2023-04-03T01:26:13;11.38;;;10.27;;
65545;SDS011;52177;55.968;37.498;2023-04-03T01:26:43;10.38;;;9.35;;
65545;SDS011;52177;55.968;37.498;2023-04-03T01:27:14;11.50;;;9.95;;
65545;SDS011;52177;55.968;37.498;2023-04-03T01:27:45;10.45;;;9.38;;
65545;SDS011;52177;55.968;37.498;2023-04-03T01:28:20;11.10;;;9.50;;
65545;SDS011;52177;55.968;37.498;2023-04-03T01:28:55;12.20;;;9.45;;
65545;SDS011;52177;55.968;37.498;2023-04-03T01:29:25;12.45;;;9.77;;
65545;SDS011;52177;55.968;37.498;2023-04-03T01:29:56;10.30;;;9.27;;
65545;SDS011;52177;55.968;37.498;2023-04-03T01:30:34;12.07;;;9.82;;
65545;SDS011;52177;55.968;37.498;2023-04-03T01:31:13;11.60;;;9.23;;
65545;SDS011;52177;55.968;37.498;2023-04-03T01:31:55;10.10;;;9.00;;
65545;SDS011;52177;55.968;37.498;2023-04-03T01:32:27;13.23;;;9.70;;
65545;SDS011;52177;55.968;37.498;2023-04-03T01:32:57;11.60;;;9.27;;
65545;SDS011;52177;55.968;37.498;2023-04-03T01:33:28;9.60;;;8.60;;
65545;SDS011;52177;55.968;37.498;2023-04-03T01:33:59;9.45;;;8.55;;
65545;SDS011;52177;55.968;37.498;2023-04-03T01:34:29;9.77;;;8.50;;
65545;SDS011;52177;55.968;37.498;2023-04-03T01:35:00;10.45;;;9.25;;
65545;SDS011;52177;55.968;37.498;2023-04-03T01:35:31;12.82;;;9.88;;
65545;SDS011;52177;55.968;37.498;2023-04-03T01:36:01;10.93;;;9.70;;
65545;SDS011;52177;55.968;37.498;2023-04-03T01:36:32;10.52;;;9.35;;
65545;SDS011;52177;55.968;37.498;2023-04-03T01:37:03;10.15;;;9.10;;
65545;SDS011;52177;55.968;37.498;2023-04-03T01:37:33;11.02;;;9.60;;
65545;SDS011;52177;55.968;37.498;2023-04-03T01:38:03;13.00;;;10.05;;
65545;SDS011;52177;55.968;37.498;2023-04-03T01:38:34;14.35;;;9.98;;
65545;SDS011;52177;55.968;37.498;2023-04-03T01:39:04;11.63;;;10.48;;
65545;SDS011;52177;55.968;37.498;2023-04-03T01:39:36;10.35;;;9.23;;
65545;SDS011;52177;55.968;37.498;2023-04-03T01:40:06;10.98;;;9.73;;
65545;SDS011;52177;55.968;37.498;2023-04-03T01:40:38;11.88;;;9.98;;
65545;SDS011;52177;55.968;37.498;2023-04-03T01:41:08;14.90;;;10.05;;
65545;SDS011;52177;55.968;37.498;2023-04-03T01:41:39;12.32;;;9.85;;
65545;SDS011;52177;55.968;37.498;2023-04-03T01:42:09;10.82;;;9.63;;
65545;SDS011;52177;55.968;37.498;2023-04-03T01:42:41;12.98;;;10.95;;
65545;SDS011;52177;55.968;37.498;2023-04-03T01:43:11;12.85;;;10.00;;
65545;SDS011;52177;55.968;37.498;2023-04-03T01:43:42;12.07;;;9.77;;
65545;SDS011;52177;55.968;37.498;2023-04-03T01:44:13;10.50;;;9.48;;
65545;SDS011;52177;55.968;37.498;2023-04-03T01:44:43;13.80;;;10.05;;
65545;SDS011;52177;55.968;37.498;2023-04-03T01:45:14;11.98;;;10.50;;
65545;SDS011;52177;55.968;37.498;2023-04-03T01:45:45;11.88;;;10.00;;
65545;SDS011;52177;55.968;37.498;2023-04-03T01:46:16;13.95;;;9.40;;
65545;SDS011;52177;55.968;37.498;2023-04-03T01:46:48;11.27;;;10.13;;
65545;SDS011;52177;55.968;37.498;2023-04-03T01:47:18;10.68;;;9.55;;
65545;SDS011;52177;55.968;37.498;2023-04-03T01:47:49;11.18;;;10.07;;
65545;SDS011;52177;55.968;37.498;2023-04-03T01:48:20;13.10;;;10.95;;
65545;SDS011;52177;55.968;37.498;2023-04-03T01:48:50;13.68;;;10.32;;
65545;SDS011;52177;55.968;37.498;2023-04-03T01:49:21;11.82;;;10.27;;
65545;SDS011;52177;55.968;37.498;2023-04-03T01:49:51;13.48;;;10.20;;
65545;SDS011;52177;55.968;37.498;2023-04-03T01:50:21;11.65;;;10.02;;
65545;SDS011;52177;55.968;37.498;2023-04-03T01:50:51;12.82;;;10.00;;
65545;SDS011;52177;55.968;37.498;2023-04-03T01:51:22;12.55;;;10.00;;
65545;SDS011;52177;55.968;37.498;2023-04-03T01:51:52;12.88;;;10.70;;
65545;SDS011;52177;55.968;37.498;2023-04-03T01:52:22;10.65;;;9.55;;
65545;SDS011;52177;55.968;37.498;2023-04-03T01:52:53;10.52;;;9.43;;
65545;SDS011;52177;55.968;37.498;2023-04-03T01:53:23;12.27;;;10.02;;
65545;SDS011;52177;55.968;37.498;2023-04-03T01:53:54;12.85;;;9.93;;
65545;SDS011;52177;55.968;37.498;2023-04-03T01:54:24;10.73;;;9.07;;
65545;SDS011;52177;55.968;37.498;2023-04-03T01:54:54;13.23;;;10.15;;
65545;SDS011;52177;55.968;37.498;2023-04-03T01:55:25;10.65;;;9.43;;
65545;SDS011;52177;55.968;37.498;2023-04-03T01:55:55;15.13;;;9.98;;
65545;SDS011;52177;55.968;37.498;2023-04-03T01:56:25;10.75;;;9.65;;
65545;SDS011;52177;55.968;37.498;2023-04-03T01:56:56;13.15;;;9.98;;
65545;SDS011;52177;55.968;37.498;2023-04-03T01:57:26;12.55;;;10.32;;
65545;SDS011;52177;55.968;37.498;2023-04-03T01:57:57;11.60;;;10.25;;
65545;SDS011;52177;55.968;37.498;2023-04-03T01:58:27;11.57;;;9.90;;
65545;SDS011;52177;55.968;37.498;2023-04-03T01:58:57;14.73;;;10.05;;
65545;SDS011;52177;55.968;37.498;2023-04-03T01:59:28;10.82;;;9.50;;
65545;SDS011;52177;55.968;37.498;2023-04-03T01:59:58;12.23;;;9.90;;
65545;SDS011;52177;55.968;37.498;2023-04-03T02:00:28;11.50;;;10.05;;
65545;SDS011;52177;55.968;37.498;2023-04-03T02:00:59;12.75;;;10.38;;
65545;SDS011;52177;55.968;37.498;2023-04-03T02:01:30;12.50;;;10.00;;
65545;SDS011;52177;55.968;37.498;2023-04-03T02:02:00;12.27;;;10.30;;
65545;SDS011;52177;55.968;37.498;2023-04-03T02:02:31;12.02;;;9.63;;
65545;SDS011;52177;55.968;37.498;2023-04-03T02:03:02;14.43;;;11.05;;
65545;SDS011;52177;55.968;37.498;2023-04-03T02:03:33;13.75;;;10.55;;
65545;SDS011;52177;55.968;37.498;2023-04-03T02:04:03;13.68;;;10.20;;
65545;SDS011;52177;55.968;37.498;2023-04-03T02:04:33;12.32;;;10.82;;
65545;SDS011;52177;55.968;37.498;2023-04-03T02:05:04;10.75;;;9.73;;
65545;SDS011;52177;55.968;37.498;2023-04-03T02:05:35;14.05;;;10.73;;
65545;SDS011;52177;55.968;37.498;2023-04-03T02:06:05;15.75;;;10.45;;
65545;SDS011;52177;55.968;37.498;2023-04-03T02:06:36;16.58;;;10.63;;
65545;SDS011;52177;55.968;37.498;2023-04-03T02:07:06;12.23;;;9.90;;
65545;SDS011;52177;55.968;37.498;2023-04-03T02:07:37;12.07;;;9.55;;
65545;SDS011;52177;55.968;37.498;2023-04-03T02:08:07;12.55;;;10.10;;
65545;SDS011;52177;55.968;37.498;2023-04-03T02:08:37;12.07;;;10.02;;
65545;SDS011;52177;55.968;37.498;2023-04-03T02:09:08;11.02;;;9.70;;
65545;SDS011;52177;55.968;37.498;2023-04-03T02:09:38;15.98;;;10.60;;
65545;SDS011;52177;55.968;37.498;2023-04-03T02:10:08;12.52;;;10.23;;
65545;SDS011;52177;55.968;37.498;2023-04-03T02:10:39;11.45;;;10.00;;
65545;SDS011;52177;55.968;37.498;2023-04-03T02:11:09;12.77;;;11.38;;
65545;SDS011;52177;55.968;37.498;2023-04-03T02:11:40;14.38;;;10.82;;
65545;SDS011;52177;55.968;37.498;2023-04-03T02:12:10;12.38;;;10.73;;
65545;SDS011;52177;55.968;37.498;2023-04-03T02:12:41;12.63;;;11.00;;
65545;SDS011;52177;55.968;37.498;2023-04-03T02:13:11;11.60;;;10.05;;
65545;SDS011;52177;55.968;37.498;2023-04-03T02:13:41;10.55;;;9.43;;
65545;SDS011;52177;55.968;37.498;2023-04-03T02:14:12;10.90;;;9.77;;
65545;SDS011;52177;55.968;37.498;2023-04-03T02:14:42;12.75;;;9.80;;
65545;SDS011;52177;55.968;37.498;2023-04-03T02:15:12;10.43;;;9.32;;
65545;SDS011;52177;55.968;37.498;2023-04-03T02:15:43;11.00;;;9.90;;
65545;SDS011;52177;55.968;37.498;2023-04-03T02:16:13;15.00;;;10.13;;
65545;SDS011;52177;55.968;37.498;2023-04-03T02:16:43;11.95;;;10.13;;
65545;SDS011;52177;55.968;37.498;2023-04-03T02:17:13;12.35;;;10.18;;
65545;SDS011;52177;55.968;37.498;2023-04-03T02:17:45;13.32;;;10.95;;
65545;SDS011;52177;55.968;37.498;2023-04-03T02:18:15;15.32;;;10.85;;
65545;SDS011;52177;55.968;37.498;2023-04-03T02:18:46;11.85;;;10.65;;
65545;SDS011;52177;55.968;37.498;2023-04-03T02:19:16;13.02;;;10.82;;
65545;SDS011;52177;55.968;37.498;2023-04-03T02:19:47;16.40;;;11.35;;
65545;SDS011;52177;55.968;37.498;2023-04-03T02:20:17;12.55;;;10.95;;
65545;SDS011;52177;55.968;37.498;2023-04-03T02:20:48;12.27;;;10.73;;
65545;SDS011;52177;55.968;37.498;2023-04-03T02:21:18;13.95;;;11.18;;
65545;SDS011;52177;55.968;37.498;2023-04-03T02:21:48;15.55;;;11.98;;
65545;SDS011;52177;55.968;37.498;2023-04-03T02:22:19;14.32;;;11.35;;
65545;SDS011;52177;55.968;37.498;2023-04-03T02:22:50;14.05;;;11.75;;
65545;SDS011;52177;55.968;37.498;2023-04-03T02:23:20;13.27;;;11.50;;
65545;SDS011;52177;55.968;37.498;2023-04-03T02:23:50;13.90;;;11.40;;
65545;SDS011;52177;55.968;37.498;2023-04-03T02:24:21;14.48;;;10.48;;
65545;SDS011;52177;55.968;37.498;2023-04-03T02:24:51;13.68;;;10.63;;
65545;SDS011;52177;55.968;37.498;2023-04-03T02:25:21;17.92;;;12.05;;
65545;SDS011;52177;55.968;37.498;2023-04-03T02:25:52;14.55;;;11.82;;
65545;SDS011;52177;55.968;37.498;2023-04-03T02:26:22;16.70;;;11.82;;
65545;SDS011;52177;55.968;37.498;2023-04-03T02:26:53;13.48;;;11.90;;
65545;SDS011;52177;55.968;37.498;2023-04-03T02:27:23;13.93;;;11.77;;
65545;SDS011;52177;55.968;37.498;2023-04-03T02:27:53;15.27;;;11.52;;
65545;SDS011;52177;55.968;37.498;2023-04-03T02:28:24;13.18;;;11.27;;
65545;SDS011;52177;55.968;37.498;2023-04-03T02:28:54;13.32;;;11.35;;
65545;SDS011;52177;55.968;37.498;2023-04-03T02:29:25;13.93;;;11.57;;
65545;SDS011;52177;55.968;37.498;2023-04-03T02:29:55;13.80;;;11.80;;
65545;SDS011;52177;55.968;37.498;2023-04-03T02:30:25;13.93;;;12.43;;
65545;SDS011;52177;55.968;37.498;2023-04-03T02:30:56;14.70;;;11.82;;
65545;SDS011;52177;55.968;37.498;2023-04-03T02:31:26;15.68;;;11.95;;
65545;SDS011;52177;55.968;37.498;2023-04-03T02:31:56;19.08;;;12.30;;
65545;SDS011;52177;55.968;37.498;2023-04-03T02:32:27;16.48;;;12.57;;
65545;SDS011;52177;55.968;37.498;2023-04-03T02:32:57;17.95;;;12.70;;
65545;SDS011;52177;55.968;37.498;2023-04-03T02:33:28;17.52;;;12.27;;
65545;SDS011;52177;55.968;37.498;2023-04-03T02:33:58;15.02;;;12.88;;
65545;SDS011;52177;55.968;37.498;2023-04-03T02:34:28;18.73;;;12.18;;
65545;SDS011;52177;55.968;37.498;2023-04-03T02:34:59;16.63;;;13.27;;
65545;SDS011;52177;55.968;37.498;2023-04-03T02:35:29;15.77;;;12.82;;
65545;SDS011;52177;55.968;37.498;2023-04-03T02:35:59;16.70;;;13.25;;
65545;SDS011;52177;55.968;37.498;2023-04-03T02:36:30;21.38;;;13.40;;
65545;SDS011;52177;55.968;37.498;2023-04-03T02:37:00;16.50;;;12.05;;
65545;SDS011;52177;55.968;37.498;2023-04-03T02:37:30;16.52;;;12.32;;
65545;SDS011;52177;55.968;37.498;2023-04-03T02:38:01;15.93;;;12.02;;
65545;SDS011;52177;55.968;37.498;2023-04-03T02:38:31;14.68;;;12.20;;
65545;SDS011;52177;55.968;37.498;2023-04-03T02:39:02;14.70;;;12.02;;
65545;SDS011;52177;55.968;37.498;2023-04-03T02:39:33;17.02;;;12.13;;
65545;SDS011;52177;55.968;37.498;2023-04-03T02:40:04;13.95;;;11.60;;
65545;SDS011;52177;55.968;37.498;2023-04-03T02:40:36;13.55;;;12.10;;
65545;SDS011;52177;55.968;37.498;2023-04-03T02:41:07;16.90;;;12.40;;
65545;SDS011;52177;55.968;37.498;2023-04-03T02:41:39;14.23;;;12.45;;
65545;SDS011;52177;55.968;37.498;2023-04-03T02:42:10;17.42;;;12.70;;
65545;SDS011;52177;55.968;37.498;2023-04-03T02:42:40;15.20;;;11.98;;
65545;SDS011;52177;55.968;37.498;2023-04-03T02:43:10;15.68;;;13.13;;
65545;SDS011;52177;55.968;37.498;2023-04-03T02:43:41;18.75;;;13.02;;
65545;SDS011;52177;55.968;37.498;2023-04-03T02:44:11;16.95;;;12.90;;
65545;SDS011;52177;55.968;37.498;2023-04-03T02:44:42;16.95;;;12.80;;
65545;SDS011;52177;55.968;37.498;2023-04-03T02:45:12;18.77;;;12.88;;
65545;SDS011;52177;55.968;37.498;2023-04-03T02:45:43;15.50;;;13.40;;
65545;SDS011;52177;55.968;37.498;2023-04-03T02:46:13;19.13;;;13.80;;
65545;SDS011;52177;55.968;37.498;2023-04-03T02:46:45;15.40;;;12.77;;
65545;SDS011;52177;55.968;37.498;2023-04-03T02:47:15;17.23;;;13.23;;
65545;SDS011;52177;55.968;37.498;2023-04-03T02:47:46;18.02;;;12.88;;
65545;SDS011;52177;55.968;37.498;2023-04-03T02:48:16;18.10;;;13.85;;
65545;SDS011;52177;55.968;37.498;2023-04-03T02:48:46;18.83;;;13.05;;
65545;SDS011;52177;55.968;37.498;2023-04-03T02:49:17;16.80;;;13.27;;
65545;SDS011;52177;55.968;37.498;2023-04-03T02:49:47;18.05;;;12.93;;
65545;SDS011;52177;55.968;37.498;2023-04-03T02:50:18;17.80;;;13.48;;
65545;SDS011;52177;55.968;37.498;2023-04-03T02:50:48;17.73;;;12.93;;
65545;SDS011;52177;55.968;37.498;2023-04-03T02:51:19;16.02;;;12.63;;
65545;SDS011;52177;55.968;37.498;2023-04-03T02:51:50;18.15;;;12.95;;
65545;SDS011;52177;55.968;37.498;2023-04-03T02:52:21;21.17;;;13.75;;
65545;SDS011;52177;55.968;37.498;2023-04-03T02:52:51;19.38;;;14.55;;
65545;SDS011;52177;55.968;37.498;2023-04-03T02:53:22;19.08;;;13.05;;
65545;SDS011;52177;55.968;37.498;2023-04-03T02:53:53;18.13;;;12.65;;
65545;SDS011;52177;55.968;37.498;2023-04-03T02:54:23;16.98;;;12.77;;
65545;SDS011;52177;55.968;37.498;2023-04-03T02:54:57;19.60;;;13.20;;
65545;SDS011;52177;55.968;37.498;2023-04-03T02:55:28;17.98;;;12.93;;
65545;SDS011;52177;55.968;37.498;2023-04-03T02:55:58;15.02;;;12.52;;
65545;SDS011;52177;55.968;37.498;2023-04-03T02:56:28;17.75;;;13.25;;
65545;SDS011;52177;55.968;37.498;2023-04-03T02:56:58;13.57;;;12.13;;
65545;SDS011;52177;55.968;37.498;2023-04-03T02:57:29;13.43;;;11.88;;
65545;SDS011;52177;55.968;37.498;2023-04-03T02:57:59;16.42;;;12.02;;
65545;SDS011;52177;55.968;37.498;2023-04-03T02:58:30;18.42;;;12.52;;
65545;SDS011;52177;55.968;37.498;2023-04-03T02:59:00;14.00;;;11.63;;
65545;SDS011;52177;55.968;37.498;2023-04-03T02:59:30;12.77;;;11.18;;
65545;SDS011;52177;55.968;37.498;2023-04-03T03:00:01;15.20;;;11.82;;
65545;SDS011;52177;55.968;37.498;2023-04-03T03:00:32;14.77;;;12.48;;
65545;SDS011;52177;55.968;37.498;2023-04-03T03:01:02;16.55;;;12.30;;
65545;SDS011;52177;55.968;37.498;2023-04-03T03:01:33;19.92;;;11.50;;
65545;SDS011;52177;55.968;37.498;2023-04-03T03:02:03;14.57;;;12.32;;
65545;SDS011;52177;55.968;37.498;2023-04-03T03:02:33;16.63;;;12.35;;
65545;SDS011;52177;55.968;37.498;2023-04-03T03:03:04;18.30;;;12.00;;
65545;SDS011;52177;55.968;37.498;2023-04-03T03:03:34;16.60;;;12.23;;
65545;SDS011;52177;55.968;37.498;2023-04-03T03:04:05;17.08;;;12.73;;
65545;SDS011;52177;55.968;37.498;2023-04-03T03:04:35;15.25;;;12.65;;
65545;SDS011;52177;55.968;37.498;2023-04-03T03:05:06;16.25;;;11.90;;
65545;SDS011;52177;55.968;37.498;2023-04-03T03:05:37;18.65;;;12.93;;
65545;SDS011;52177;55.968;37.498;2023-04-03T03:06:08;13.77;;;12.13;;
65545;SDS011;52177;55.968;37.498;2023-04-03T03:06:43;13.90;;;12.15;;